Terminal Aerodrome Forecast
Issued by NWS

Home | Current Version | Previous Version | Text Only | Print | Product List | Glossary On
Versions: 1 2 3 4 5 6 7 8 9 10 11 12 13 14 15 16 17
774
FTUS46 KMFR 180755 AAA
TAFOTH
TAF AMD
KOTH 180755Z 1808/1906 16010G22KT P6SM BKN025 OVC040 WS020/19050KT
     FM180900 18018G27KT 4SM RA BR FEW015 BKN025 OVC030
     FM181200 19021G29KT P6SM -SHRA FEW010 OVC030
     FM181900 18012G20KT 5SM -SHRA FEW010 OVC025
     FM190000 19007KT 4SM -RA BR OVC025
     FM190200 20009KT 6SM -RA BR OVC050=

USA.gov is the U.S. government's official web portal to all federal, state and local government web resources and services.